sensor_id;sensor_type;location;lat;lon;timestamp;temperature;humidity
43015;DHT22;28637;50.554;7.032;2022-10-30T00:04:16;16.30;99.90
43015;DHT22;28637;50.554;7.032;2022-10-30T00:09:16;16.20;99.90
43015;DHT22;28637;50.554;7.032;2022-10-30T00:14:17;16.10;99.90
43015;DHT22;28637;50.554;7.032;2022-10-30T00:19:18;15.90;99.90
43015;DHT22;28637;50.554;7.032;2022-10-30T00:24:19;15.80;99.90
43015;DHT22;28637;50.554;7.032;2022-10-30T00:29:19;15.80;99.90
43015;DHT22;28637;50.554;7.032;2022-10-30T00:34:22;15.60;99.90
43015;DHT22;28637;50.554;7.032;2022-10-30T00:39:23;15.50;99.90
43015;DHT22;28637;50.554;7.032;2022-10-30T00:49:44;14.90;99.90
43015;DHT22;28637;50.554;7.032;2022-10-30T00:54:48;14.80;99.90
43015;DHT22;28637;50.554;7.032;2022-10-30T00:59:49;14.70;99.90
43015;DHT22;28637;50.554;7.032;2022-10-30T01:04:52;14.60;99.90
43015;DHT22;28637;50.554;7.032;2022-10-30T01:09:54;14.70;99.90
43015;DHT22;28637;50.554;7.032;2022-10-30T01:14:56;14.60;99.90
43015;DHT22;28637;50.554;7.032;2022-10-30T01:35:56;14.00;99.90
43015;DHT22;28637;50.554;7.032;2022-10-30T01:40:58;14.10;99.90
43015;DHT22;28637;50.554;7.032;2022-10-30T01:51:15;14.30;99.90
43015;DHT22;28637;50.554;7.032;2022-10-30T02:01:39;14.40;99.90
43015;DHT22;28637;50.554;7.032;2022-10-30T02:06:40;14.40;99.90
43015;DHT22;28637;50.554;7.032;2022-10-30T02:11:41;14.40;99.90
43015;DHT22;28637;50.554;7.032;2022-10-30T02:16:46;14.40;99.90
43015;DHT22;28637;50.554;7.032;2022-10-30T02:21:49;14.40;99.90
43015;DHT22;28637;50.554;7.032;2022-10-30T02:26:50;14.30;99.90
43015;DHT22;28637;50.554;7.032;2022-10-30T02:31:50;14.40;99.90
43015;DHT22;28637;50.554;7.032;2022-10-30T02:36:51;14.50;99.90
43015;DHT22;28637;50.554;7.032;2022-10-30T02:41:52;14.50;99.90
43015;DHT22;28637;50.554;7.032;2022-10-30T02:46:52;14.60;99.90
43015;DHT22;28637;50.554;7.032;2022-10-30T02:51:53;14.60;99.90
43015;DHT22;28637;50.554;7.032;2022-10-30T02:56:54;14.50;99.90
43015;DHT22;28637;50.554;7.032;2022-10-30T03:01:54;14.60;99.90
43015;DHT22;28637;50.554;7.032;2022-10-30T03:06:55;14.60;99.90
43015;DHT22;28637;50.554;7.032;2022-10-30T03:11:55;14.60;99.90
43015;DHT22;28637;50.554;7.032;2022-10-30T03:16:56;14.60;99.90
43015;DHT22;28637;50.554;7.032;2022-10-30T03:21:57;14.70;99.90
43015;DHT22;28637;50.554;7.032;2022-10-30T03:26:57;14.60;99.90
43015;DHT22;28637;50.554;7.032;2022-10-30T03:31:58;14.60;99.90
43015;DHT22;28637;50.554;7.032;2022-10-30T03:36:59;14.60;99.90
43015;DHT22;28637;50.554;7.032;2022-10-30T03:41:59;14.50;99.90
43015;DHT22;28637;50.554;7.032;2022-10-30T03:47:00;14.50;99.90
43015;DHT22;28637;50.554;7.032;2022-10-30T03:52:01;14.50;99.90
43015;DHT22;28637;50.554;7.032;2022-10-30T03:57:02;14.50;99.90
43015;DHT22;28637;50.554;7.032;2022-10-30T04:02:02;14.50;99.90
43015;DHT22;28637;50.554;7.032;2022-10-30T04:07:03;14.50;99.90
43015;DHT22;28637;50.554;7.032;2022-10-30T04:12:04;14.30;99.90
43015;DHT22;28637;50.554;7.032;2022-10-30T04:17:04;14.20;99.90
43015;DHT22;28637;50.554;7.032;2022-10-30T04:22:05;13.90;99.90
43015;DHT22;28637;50.554;7.032;2022-10-30T04:27:06;13.90;99.90
43015;DHT22;28637;50.554;7.032;2022-10-30T04:32:10;14.00;99.90
43015;DHT22;28637;50.554;7.032;2022-10-30T04:37:11;14.00;99.90
43015;DHT22;28637;50.554;7.032;2022-10-30T04:42:11;14.00;99.90
43015;DHT22;28637;50.554;7.032;2022-10-30T04:47:12;14.00;99.90
43015;DHT22;28637;50.554;7.032;2022-10-30T04:52:12;14.00;99.90
43015;DHT22;28637;50.554;7.032;2022-10-30T04:57:13;13.90;99.90
43015;DHT22;28637;50.554;7.032;2022-10-30T05:02:14;13.90;99.90
43015;DHT22;28637;50.554;7.032;2022-10-30T05:07:16;13.90;99.90
43015;DHT22;28637;50.554;7.032;2022-10-30T05:12:17;14.00;99.90
43015;DHT22;28637;50.554;7.032;2022-10-30T05:17:18;13.90;99.90
43015;DHT22;28637;50.554;7.032;2022-10-30T05:22:19;13.90;99.90
43015;DHT22;28637;50.554;7.032;2022-10-30T05:27:20;13.70;99.90
43015;DHT22;28637;50.554;7.032;2022-10-30T05:32:20;13.60;99.90
43015;DHT22;28637;50.554;7.032;2022-10-30T05:37:21;13.50;99.90
43015;DHT22;28637;50.554;7.032;2022-10-30T05:42:22;13.50;99.90
43015;DHT22;28637;50.554;7.032;2022-10-30T05:47:22;13.40;99.90
43015;DHT22;28637;50.554;7.032;2022-10-30T05:52:23;13.40;99.90
43015;DHT22;28637;50.554;7.032;2022-10-30T05:57:26;13.40;99.90
43015;DHT22;28637;50.554;7.032;2022-10-30T06:02:27;13.30;99.90
43015;DHT22;28637;50.554;7.032;2022-10-30T06:07:27;13.30;99.90
43015;DHT22;28637;50.554;7.032;2022-10-30T06:12:28;13.40;99.90
43015;DHT22;28637;50.554;7.032;2022-10-30T06:17:29;13.40;99.90
43015;DHT22;28637;50.554;7.032;2022-10-30T06:22:31;13.30;99.90
43015;DHT22;28637;50.554;7.032;2022-10-30T06:27:36;13.40;99.90
43015;DHT22;28637;50.554;7.032;2022-10-30T06:32:38;13.30;99.90
43015;DHT22;28637;50.554;7.032;2022-10-30T06:37:47;13.30;99.90
43015;DHT22;28637;50.554;7.032;2022-10-30T06:42:52;13.10;99.90
43015;DHT22;28637;50.554;7.032;2022-10-30T06:47:53;13.10;99.90
43015;DHT22;28637;50.554;7.032;2022-10-30T06:52:53;13.00;99.90
43015;DHT22;28637;50.554;7.032;2022-10-30T06:57:55;13.00;99.90
43015;DHT22;28637;50.554;7.032;2022-10-30T07:02:58;13.10;99.90
43015;DHT22;28637;50.554;7.032;2022-10-30T07:07:59;13.20;99.90
43015;DHT22;28637;50.554;7.032;2022-10-30T07:13:01;13.20;99.90
43015;DHT22;28637;50.554;7.032;2022-10-30T07:18:03;13.10;99.90
43015;DHT22;28637;50.554;7.032;2022-10-30T07:23:04;13.20;99.90
43015;DHT22;28637;50.554;7.032;2022-10-30T07:28:04;13.10;99.90
43015;DHT22;28637;50.554;7.032;2022-10-30T07:33:06;13.30;99.90
43015;DHT22;28637;50.554;7.032;2022-10-30T07:38:11;13.30;99.90
43015;DHT22;28637;50.554;7.032;2022-10-30T07:43:12;13.30;99.90
43015;DHT22;28637;50.554;7.032;2022-10-30T07:48:12;13.40;99.90
43015;DHT22;28637;50.554;7.032;2022-10-30T07:53:13;13.60;99.90
43015;DHT22;28637;50.554;7.032;2022-10-30T07:58:14;13.80;99.90
43015;DHT22;28637;50.554;7.032;2022-10-30T08:03:14;13.90;99.90
43015;DHT22;28637;50.554;7.032;2022-10-30T08:08:15;14.10;99.90
43015;DHT22;28637;50.554;7.032;2022-10-30T08:13:16;14.00;99.90
43015;DHT22;28637;50.554;7.032;2022-10-30T08:18:17;14.10;99.90
43015;DHT22;28637;50.554;7.032;2022-10-30T08:23:18;14.40;99.90
43015;DHT22;28637;50.554;7.032;2022-10-30T08:28:21;14.70;99.90
43015;DHT22;28637;50.554;7.032;2022-10-30T08:33:21;14.90;99.90
43015;DHT22;28637;50.554;7.032;2022-10-30T08:38:23;15.20;99.90
43015;DHT22;28637;50.554;7.032;2022-10-30T08:43:23;15.40;99.90
43015;DHT22;28637;50.554;7.032;2022-10-30T08:48:26;15.40;99.90
43015;DHT22;28637;50.554;7.032;2022-10-30T08:53:26;15.40;99.90
43015;DHT22;28637;50.554;7.032;2022-10-30T08:58:27;15.40;99.90
43015;DHT22;28637;50.554;7.032;2022-10-30T09:03:28;15.40;99.90
43015;DHT22;28637;50.554;7.032;2022-10-30T09:08:29;15.60;99.90
43015;DHT22;28637;50.554;7.032;2022-10-30T09:13:30;15.80;99.90
43015;DHT22;28637;50.554;7.032;2022-10-30T09:18:30;16.10;99.90
43015;DHT22;28637;50.554;7.032;2022-10-30T09:23:31;16.50;99.90
43015;DHT22;28637;50.554;7.032;2022-10-30T09:28:32;17.00;99.90
43015;DHT22;28637;50.554;7.032;2022-10-30T09:33:33;17.70;99.90
43015;DHT22;28637;50.554;7.032;2022-10-30T09:38:34;18.20;99.90
43015;DHT22;28637;50.554;7.032;2022-10-30T09:55:24;19.40;99.90
43015;DHT22;28637;50.554;7.032;2022-10-30T10:00:36;19.70;99.90
43015;DHT22;28637;50.554;7.032;2022-10-30T10:05:51;19.90;99.90
43015;DHT22;28637;50.554;7.032;2022-10-30T10:11:07;20.30;99.90
43015;DHT22;28637;50.554;7.032;2022-10-30T10:16:30;20.50;99.90
43015;DHT22;28637;50.554;7.032;2022-10-30T10:21:37;20.90;99.90
43015;DHT22;28637;50.554;7.032;2022-10-30T10:26:49;21.20;99.90
43015;DHT22;28637;50.554;7.032;2022-10-30T10:32:03;21.50;99.90
43015;DHT22;28637;50.554;7.032;2022-10-30T10:42:33;21.70;99.90
43015;DHT22;28637;50.554;7.032;2022-10-30T10:53:03;21.70;98.90
43015;DHT22;28637;50.554;7.032;2022-10-30T10:58:15;21.80;97.50
43015;DHT22;28637;50.554;7.032;2022-10-30T11:09:21;21.90;97.20
43015;DHT22;28637;50.554;7.032;2022-10-30T11:14:24;22.10;94.30
43015;DHT22;28637;50.554;7.032;2022-10-30T11:19:29;22.20;92.90
43015;DHT22;28637;50.554;7.032;2022-10-30T11:24:32;22.30;94.10
43015;DHT22;28637;50.554;7.032;2022-10-30T11:29:33;22.50;91.90
43015;DHT22;28637;50.554;7.032;2022-10-30T11:34:35;22.60;93.20
43015;DHT22;28637;50.554;7.032;2022-10-30T11:39:36;23.00;92.50
43015;DHT22;28637;50.554;7.032;2022-10-30T11:44:49;23.40;94.10
43015;DHT22;28637;50.554;7.032;2022-10-30T11:49:56;23.60;92.20
43015;DHT22;28637;50.554;7.032;2022-10-30T11:55:14;23.60;90.70
43015;DHT22;28637;50.554;7.032;2022-10-30T12:00:21;23.70;93.10
43015;DHT22;28637;50.554;7.032;2022-10-30T12:05:29;23.50;92.00
43015;DHT22;28637;50.554;7.032;2022-10-30T12:10:30;23.70;91.70
43015;DHT22;28637;50.554;7.032;2022-10-30T12:15:36;24.10;91.70
43015;DHT22;28637;50.554;7.032;2022-10-30T12:20:37;24.20;91.90
43015;DHT22;28637;50.554;7.032;2022-10-30T12:25:45;24.20;90.30
43015;DHT22;28637;50.554;7.032;2022-10-30T12:35:55;23.60;90.30
43015;DHT22;28637;50.554;7.032;2022-10-30T12:51:57;22.70;88.40
43015;DHT22;28637;50.554;7.032;2022-10-30T12:57:14;22.40;90.20
43015;DHT22;28637;50.554;7.032;2022-10-30T13:07:43;22.40;91.70
43015;DHT22;28637;50.554;7.032;2022-10-30T13:12:46;22.20;92.80
43015;DHT22;28637;50.554;7.032;2022-10-30T13:17:52;22.20;94.00
43015;DHT22;28637;50.554;7.032;2022-10-30T13:23:14;22.10;93.00
43015;DHT22;28637;50.554;7.032;2022-10-30T13:28:37;22.10;93.70
43015;DHT22;28637;50.554;7.032;2022-10-30T13:33:46;22.20;93.70
43015;DHT22;28637;50.554;7.032;2022-10-30T13:38:51;22.30;93.40
43015;DHT22;28637;50.554;7.032;2022-10-30T13:44:19;22.20;94.90
43015;DHT22;28637;50.554;7.032;2022-10-30T13:49:45;22.00;92.90
43015;DHT22;28637;50.554;7.032;2022-10-30T14:00:22;21.90;94.00
43015;DHT22;28637;50.554;7.032;2022-10-30T14:05:44;21.70;93.80
43015;DHT22;28637;50.554;7.032;2022-10-30T14:10:55;21.70;93.60
43015;DHT22;28637;50.554;7.032;2022-10-30T14:16:04;21.60;93.60
43015;DHT22;28637;50.554;7.032;2022-10-30T14:26:34;21.50;94.60
43015;DHT22;28637;50.554;7.032;2022-10-30T14:31:35;21.00;94.60
43015;DHT22;28637;50.554;7.032;2022-10-30T14:42:04;20.70;92.40
43015;DHT22;28637;50.554;7.032;2022-10-30T14:47:45;20.60;91.60
43015;DHT22;28637;50.554;7.032;2022-10-30T15:03:12;21.20;92.30
43015;DHT22;28637;50.554;7.032;2022-10-30T15:13:46;20.50;92.70
43015;DHT22;28637;50.554;7.032;2022-10-30T15:18:58;20.60;93.20
43015;DHT22;28637;50.554;7.032;2022-10-30T15:24:01;21.10;92.00
43015;DHT22;28637;50.554;7.032;2022-10-30T15:29:03;21.20;92.60
43015;DHT22;28637;50.554;7.032;2022-10-30T15:34:20;21.00;92.70
43015;DHT22;28637;50.554;7.032;2022-10-30T15:39:22;20.50;93.40
43015;DHT22;28637;50.554;7.032;2022-10-30T15:44:39;19.80;93.70
43015;DHT22;28637;50.554;7.032;2022-10-30T15:49:49;19.50;94.90
43015;DHT22;28637;50.554;7.032;2022-10-30T15:54:58;19.20;95.60
43015;DHT22;28637;50.554;7.032;2022-10-30T16:00:03;18.80;96.80
43015;DHT22;28637;50.554;7.032;2022-10-30T16:05:22;18.40;97.90
43015;DHT22;28637;50.554;7.032;2022-10-30T16:10:25;18.00;99.70
43015;DHT22;28637;50.554;7.032;2022-10-30T16:20:29;17.50;99.90
43015;DHT22;28637;50.554;7.032;2022-10-30T16:25:29;17.40;99.90
43015;DHT22;28637;50.554;7.032;2022-10-30T16:30:33;17.00;99.90
43015;DHT22;28637;50.554;7.032;2022-10-30T16:35:33;16.80;99.90
43015;DHT22;28637;50.554;7.032;2022-10-30T16:40:34;16.60;99.90
43015;DHT22;28637;50.554;7.032;2022-10-30T16:45:46;16.30;99.90
43015;DHT22;28637;50.554;7.032;2022-10-30T16:50:47;16.10;99.90
43015;DHT22;28637;50.554;7.032;2022-10-30T16:55:49;16.00;99.90
43015;DHT22;28637;50.554;7.032;2022-10-30T17:00:55;16.00;99.90
43015;DHT22;28637;50.554;7.032;2022-10-30T17:06:04;16.10;99.90
43015;DHT22;28637;50.554;7.032;2022-10-30T17:11:08;16.20;99.90
43015;DHT22;28637;50.554;7.032;2022-10-30T17:16:29;16.40;99.90
43015;DHT22;28637;50.554;7.032;2022-10-30T17:21:38;16.50;99.90
43015;DHT22;28637;50.554;7.032;2022-10-30T17:26:39;16.60;99.90
43015;DHT22;28637;50.554;7.032;2022-10-30T17:31:43;16.60;99.90
43015;DHT22;28637;50.554;7.032;2022-10-30T17:36:46;16.60;99.90
43015;DHT22;28637;50.554;7.032;2022-10-30T17:41:47;16.70;99.90
43015;DHT22;28637;50.554;7.032;2022-10-30T17:46:48;16.70;99.90
43015;DHT22;28637;50.554;7.032;2022-10-30T17:51:50;16.70;99.90
43015;DHT22;28637;50.554;7.032;2022-10-30T17:56:51;16.70;99.90
43015;DHT22;28637;50.554;7.032;2022-10-30T18:01:52;16.30;99.90
43015;DHT22;28637;50.554;7.032;2022-10-30T18:06:52;16.10;99.90
43015;DHT22;28637;50.554;7.032;2022-10-30T18:11:53;16.00;99.90
43015;DHT22;28637;50.554;7.032;2022-10-30T18:16:54;15.90;99.90
43015;DHT22;28637;50.554;7.032;2022-10-30T18:21:54;15.80;99.90
43015;DHT22;28637;50.554;7.032;2022-10-30T18:26:55;15.70;99.90
43015;DHT22;28637;50.554;7.032;2022-10-30T18:31:56;15.60;99.90
43015;DHT22;28637;50.554;7.032;2022-10-30T18:36:56;15.50;99.90
43015;DHT22;28637;50.554;7.032;2022-10-30T18:41:58;15.40;99.90
43015;DHT22;28637;50.554;7.032;2022-10-30T18:46:59;15.50;99.90
43015;DHT22;28637;50.554;7.032;2022-10-30T18:51:59;15.60;99.90
43015;DHT22;28637;50.554;7.032;2022-10-30T18:57:00;15.50;99.90
43015;DHT22;28637;50.554;7.032;2022-10-30T19:02:00;15.50;99.90
43015;DHT22;28637;50.554;7.032;2022-10-30T19:07:01;15.50;99.90
43015;DHT22;28637;50.554;7.032;2022-10-30T19:12:02;15.50;99.90
43015;DHT22;28637;50.554;7.032;2022-10-30T19:17:02;15.50;99.90
43015;DHT22;28637;50.554;7.032;2022-10-30T19:22:03;15.50;99.90
43015;DHT22;28637;50.554;7.032;2022-10-30T19:27:04;15.60;99.90
43015;DHT22;28637;50.554;7.032;2022-10-30T19:32:04;15.50;99.90
43015;DHT22;28637;50.554;7.032;2022-10-30T19:37:07;15.20;99.90
43015;DHT22;28637;50.554;7.032;2022-10-30T19:42:08;15.00;99.90
43015;DHT22;28637;50.554;7.032;2022-10-30T19:47:09;15.00;99.90
43015;DHT22;28637;50.554;7.032;2022-10-30T19:52:10;15.00;99.90
43015;DHT22;28637;50.554;7.032;2022-10-30T19:57:12;15.20;99.90
43015;DHT22;28637;50.554;7.032;2022-10-30T20:02:13;15.20;99.90
43015;DHT22;28637;50.554;7.032;2022-10-30T20:07:14;15.10;99.90
43015;DHT22;28637;50.554;7.032;2022-10-30T20:12:14;15.00;99.90
43015;DHT22;28637;50.554;7.032;2022-10-30T20:17:15;14.80;99.90
43015;DHT22;28637;50.554;7.032;2022-10-30T20:22:16;14.70;99.90
43015;DHT22;28637;50.554;7.032;2022-10-30T20:27:16;14.70;99.90
43015;DHT22;28637;50.554;7.032;2022-10-30T20:32:17;14.60;99.90
43015;DHT22;28637;50.554;7.032;2022-10-30T20:37:18;14.60;99.90
43015;DHT22;28637;50.554;7.032;2022-10-30T20:42:20;14.60;99.90
43015;DHT22;28637;50.554;7.032;2022-10-30T20:47:21;14.30;99.90
43015;DHT22;28637;50.554;7.032;2022-10-30T20:52:21;14.20;99.90
43015;DHT22;28637;50.554;7.032;2022-10-30T20:57:22;14.10;99.90
43015;DHT22;28637;50.554;7.032;2022-10-30T21:02:23;14.10;99.90
43015;DHT22;28637;50.554;7.032;2022-10-30T21:07:24;14.20;99.90
43015;DHT22;28637;50.554;7.032;2022-10-30T21:12:25;14.30;99.90
43015;DHT22;28637;50.554;7.032;2022-10-30T21:17:26;14.30;99.90
43015;DHT22;28637;50.554;7.032;2022-10-30T21:22:26;14.20;99.90
43015;DHT22;28637;50.554;7.032;2022-10-30T21:27:27;13.80;99.90
43015;DHT22;28637;50.554;7.032;2022-10-30T21:32:30;13.50;99.90
43015;DHT22;28637;50.554;7.032;2022-10-30T21:37:34;13.40;99.90
43015;DHT22;28637;50.554;7.032;2022-10-30T21:42:35;13.50;99.90
43015;DHT22;28637;50.554;7.032;2022-10-30T21:47:36;13.50;99.90
43015;DHT22;28637;50.554;7.032;2022-10-30T21:52:37;13.60;99.90
43015;DHT22;28637;50.554;7.032;2022-10-30T21:57:38;13.70;99.90
43015;DHT22;28637;50.554;7.032;2022-10-30T22:02:38;13.70;99.90
43015;DHT22;28637;50.554;7.032;2022-10-30T22:07:40;13.70;99.90
43015;DHT22;28637;50.554;7.032;2022-10-30T22:12:41;13.20;99.90
43015;DHT22;28637;50.554;7.032;2022-10-30T22:17:42;13.00;99.90
43015;DHT22;28637;50.554;7.032;2022-10-30T22:22:42;12.80;99.90
43015;DHT22;28637;50.554;7.032;2022-10-30T22:27:47;12.60;99.90
43015;DHT22;28637;50.554;7.032;2022-10-30T22:32:48;12.50;99.90
43015;DHT22;28637;50.554;7.032;2022-10-30T22:37:48;12.50;99.90
43015;DHT22;28637;50.554;7.032;2022-10-30T22:42:49;12.50;99.90
43015;DHT22;28637;50.554;7.032;2022-10-30T22:47:50;12.40;99.90
43015;DHT22;28637;50.554;7.032;2022-10-30T22:52:50;12.40;99.90
43015;DHT22;28637;50.554;7.032;2022-10-30T22:57:52;12.40;99.90
43015;DHT22;28637;50.554;7.032;2022-10-30T23:02:53;12.40;99.90
43015;DHT22;28637;50.554;7.032;2022-10-30T23:07:54;12.50;99.90
43015;DHT22;28637;50.554;7.032;2022-10-30T23:12:55;12.60;99.90
43015;DHT22;28637;50.554;7.032;2022-10-30T23:17:55;12.50;99.90
43015;DHT22;28637;50.554;7.032;2022-10-30T23:22:56;12.60;99.90
43015;DHT22;28637;50.554;7.032;2022-10-30T23:27:57;12.60;99.90
43015;DHT22;28637;50.554;7.032;2022-10-30T23:32:57;12.70;99.90
43015;DHT22;28637;50.554;7.032;2022-10-30T23:37:58;12.70;99.90
43015;DHT22;28637;50.554;7.032;2022-10-30T23:42:59;12.70;99.90
43015;DHT22;28637;50.554;7.032;2022-10-30T23:47:59;12.70;99.90
43015;DHT22;28637;50.554;7.032;2022-10-30T23:53:00;12.70;99.90
43015;DHT22;28637;50.554;7.032;2022-10-30T23:58:01;12.60;99.90
